sensor_id;sensor_type;location;lat;lon;timestamp;pressure;altitude;pressure_sealevel;temperature;humidity
19210;BME280;9738;51.654;14.238;2023-01-08T00:00:52;100055.28;;;6.05;100.00
19210;BME280;9738;51.654;14.238;2023-01-08T00:03:17;100054.00;;;6.09;100.00
19210;BME280;9738;51.654;14.238;2023-01-08T00:05:43;100057.50;;;6.09;100.00
19210;BME280;9738;51.654;14.238;2023-01-08T00:08:12;100045.22;;;6.08;100.00
19210;BME280;9738;51.654;14.238;2023-01-08T00:10:41;100049.69;;;6.08;100.00
19210;BME280;9738;51.654;14.238;2023-01-08T00:13:07;100049.81;;;6.06;100.00
19210;BME280;9738;51.654;14.238;2023-01-08T00:15:33;100041.28;;;6.03;100.00
19210;BME280;9738;51.654;14.238;2023-01-08T00:18:01;100039.88;;;5.99;100.00
19210;BME280;9738;51.654;14.238;2023-01-08T00:20:28;100037.47;;;5.95;100.00
19210;BME280;9738;51.654;14.238;2023-01-08T00:22:54;100043.16;;;5.91;100.00
19210;BME280;9738;51.654;14.238;2023-01-08T00:25:20;100032.94;;;5.86;100.00
19210;BME280;9738;51.654;14.238;2023-01-08T00:27:46;100041.41;;;5.80;100.00
19210;BME280;9738;51.654;14.238;2023-01-08T00:30:12;100040.28;;;5.73;100.00
19210;BME280;9738;51.654;14.238;2023-01-08T00:32:38;100032.19;;;5.75;100.00
19210;BME280;9738;51.654;14.238;2023-01-08T00:35:04;100029.66;;;5.73;100.00
19210;BME280;9738;51.654;14.238;2023-01-08T00:37:31;100034.97;;;5.73;100.00
19210;BME280;9738;51.654;14.238;2023-01-08T00:39:56;100024.88;;;5.67;100.00
19210;BME280;9738;51.654;14.238;2023-01-08T00:42:22;100024.75;;;5.68;100.00
19210;BME280;9738;51.654;14.238;2023-01-08T00:44:49;100032.84;;;5.67;100.00
19210;BME280;9738;51.654;14.238;2023-01-08T00:47:14;100032.09;;;5.65;100.00
19210;BME280;9738;51.654;14.238;2023-01-08T00:49:40;100032.53;;;5.60;100.00
19210;BME280;9738;51.654;14.238;2023-01-08T00:52:07;100015.19;;;5.56;100.00
19210;BME280;9738;51.654;14.238;2023-01-08T00:54:32;100018.44;;;5.60;100.00
19210;BME280;9738;51.654;14.238;2023-01-08T00:56:58;100015.88;;;5.58;100.00
19210;BME280;9738;51.654;14.238;2023-01-08T00:59:24;100017.13;;;5.54;100.00
19210;BME280;9738;51.654;14.238;2023-01-08T01:01:50;100010.28;;;5.52;100.00
19210;BME280;9738;51.654;14.238;2023-01-08T01:04:19;100007.38;;;5.55;100.00
19210;BME280;9738;51.654;14.238;2023-01-08T01:06:45;99992.19;;;5.57;100.00
19210;BME280;9738;51.654;14.238;2023-01-08T01:09:12;99991.50;;;5.55;100.00
19210;BME280;9738;51.654;14.238;2023-01-08T01:11:44;99986.44;;;5.52;100.00
19210;BME280;9738;51.654;14.238;2023-01-08T01:14:13;99987.03;;;5.55;100.00
19210;BME280;9738;51.654;14.238;2023-01-08T01:16:39;99977.66;;;5.51;100.00
19210;BME280;9738;51.654;14.238;2023-01-08T01:19:06;99975.97;;;5.50;100.00
19210;BME280;9738;51.654;14.238;2023-01-08T01:21:33;99973.47;;;5.49;100.00
19210;BME280;9738;51.654;14.238;2023-01-08T01:24:01;99976.13;;;5.49;100.00
19210;BME280;9738;51.654;14.238;2023-01-08T01:26:27;99978.75;;;5.49;100.00
19210;BME280;9738;51.654;14.238;2023-01-08T01:28:55;99979.59;;;5.49;100.00
19210;BME280;9738;51.654;14.238;2023-01-08T01:31:22;99968.16;;;5.49;100.00
19210;BME280;9738;51.654;14.238;2023-01-08T01:33:49;99972.72;;;5.47;100.00
19210;BME280;9738;51.654;14.238;2023-01-08T01:36:17;99964.78;;;5.47;100.00
19210;BME280;9738;51.654;14.238;2023-01-08T01:38:45;99958.78;;;5.45;100.00
19210;BME280;9738;51.654;14.238;2023-01-08T01:41:32;99943.88;;;5.43;100.00
19210;BME280;9738;51.654;14.238;2023-01-08T03:51:45;99826.88;;;5.79;100.00
19210;BME280;9738;51.654;14.238;2023-01-08T03:54:14;99822.16;;;5.82;100.00
19210;BME280;9738;51.654;14.238;2023-01-08T03:56:40;99836.84;;;5.86;100.00
19210;BME280;9738;51.654;14.238;2023-01-08T03:59:06;99835.56;;;5.90;100.00
19210;BME280;9738;51.654;14.238;2023-01-08T04:01:32;99835.88;;;5.97;100.00
19210;BME280;9738;51.654;14.238;2023-01-08T04:03:58;99833.38;;;5.95;100.00
19210;BME280;9738;51.654;14.238;2023-01-08T04:06:24;99827.09;;;5.96;100.00
19210;BME280;9738;51.654;14.238;2023-01-08T04:08:50;99824.44;;;5.96;100.00
19210;BME280;9738;51.654;14.238;2023-01-08T04:11:16;99827.25;;;5.95;100.00
19210;BME280;9738;51.654;14.238;2023-01-08T04:13:42;99830.19;;;5.92;100.00
19210;BME280;9738;51.654;14.238;2023-01-08T04:16:08;99827.53;;;5.92;100.00
19210;BME280;9738;51.654;14.238;2023-01-08T04:18:34;99826.22;;;5.86;100.00
19210;BME280;9738;51.654;14.238;2023-01-08T04:20:59;99830.81;;;5.84;100.00
19210;BME280;9738;51.654;14.238;2023-01-08T04:23:26;99829.28;;;5.82;100.00
19210;BME280;9738;51.654;14.238;2023-01-08T04:25:52;99823.69;;;5.75;100.00
19210;BME280;9738;51.654;14.238;2023-01-08T04:28:20;99811.41;;;5.74;100.00
19210;BME280;9738;51.654;14.238;2023-01-08T04:30:47;99802.34;;;5.67;100.00
19210;BME280;9738;51.654;14.238;2023-01-08T04:33:13;99792.69;;;5.66;100.00
19210;BME280;9738;51.654;14.238;2023-01-08T04:35:41;99796.22;;;5.66;100.00
19210;BME280;9738;51.654;14.238;2023-01-08T04:38:10;99801.06;;;5.61;100.00
19210;BME280;9738;51.654;14.238;2023-01-08T04:40:37;99790.47;;;5.61;100.00
19210;BME280;9738;51.654;14.238;2023-01-08T04:43:06;99786.84;;;5.62;100.00
19210;BME280;9738;51.654;14.238;2023-01-08T04:45:33;99792.41;;;5.59;100.00
19210;BME280;9738;51.654;14.238;2023-01-08T04:47:59;99786.97;;;5.61;100.00
19210;BME280;9738;51.654;14.238;2023-01-08T04:50:26;99775.66;;;5.59;100.00
19210;BME280;9738;51.654;14.238;2023-01-08T04:52:54;99777.63;;;5.57;100.00
19210;BME280;9738;51.654;14.238;2023-01-08T06:35:13;99760.16;;;5.45;100.00
19210;BME280;9738;51.654;14.238;2023-01-08T06:37:39;99761.56;;;5.49;100.00
19210;BME280;9738;51.654;14.238;2023-01-08T06:40:05;99760.31;;;5.53;100.00
19210;BME280;9738;51.654;14.238;2023-01-08T06:42:31;99754.91;;;5.54;100.00
19210;BME280;9738;51.654;14.238;2023-01-08T06:44:58;99743.34;;;5.55;100.00
19210;BME280;9738;51.654;14.238;2023-01-08T06:47:23;99748.91;;;5.62;100.00
19210;BME280;9738;51.654;14.238;2023-01-08T06:49:49;99746.81;;;5.65;100.00
19210;BME280;9738;51.654;14.238;2023-01-08T06:52:15;99732.03;;;5.63;100.00
19210;BME280;9738;51.654;14.238;2023-01-08T06:54:41;99730.22;;;5.63;100.00
19210;BME280;9738;51.654;14.238;2023-01-08T06:57:07;99739.00;;;5.64;100.00
19210;BME280;9738;51.654;14.238;2023-01-08T06:59:33;99735.94;;;5.59;100.00
19210;BME280;9738;51.654;14.238;2023-01-08T07:01:59;99737.34;;;5.63;100.00
19210;BME280;9738;51.654;14.238;2023-01-08T07:04:25;99734.56;;;5.55;100.00
19210;BME280;9738;51.654;14.238;2023-01-08T07:06:51;99732.59;;;5.57;100.00
19210;BME280;9738;51.654;14.238;2023-01-08T07:09:17;99733.72;;;5.54;100.00
19210;BME280;9738;51.654;14.238;2023-01-08T07:11:42;99743.34;;;5.55;100.00
19210;BME280;9738;51.654;14.238;2023-01-08T07:14:09;99739.31;;;5.61;100.00
19210;BME280;9738;51.654;14.238;2023-01-08T07:16:35;99741.81;;;5.62;100.00
19210;BME280;9738;51.654;14.238;2023-01-08T07:19:00;99748.09;;;5.61;100.00
19210;BME280;9738;51.654;14.238;2023-01-08T07:21:27;99742.66;;;5.63;100.00
19210;BME280;9738;51.654;14.238;2023-01-08T07:23:52;99745.44;;;5.61;100.00
19210;BME280;9738;51.654;14.238;2023-01-08T07:26:18;99739.84;;;5.64;100.00
19210;BME280;9738;51.654;14.238;2023-01-08T07:28:45;99737.94;;;5.66;100.00
19210;BME280;9738;51.654;14.238;2023-01-08T07:31:10;99739.44;;;5.69;100.00
19210;BME280;9738;51.654;14.238;2023-01-08T07:33:36;99735.38;;;5.65;100.00
19210;BME280;9738;51.654;14.238;2023-01-08T07:36:03;99735.13;;;5.68;100.00
19210;BME280;9738;51.654;14.238;2023-01-08T07:38:30;99737.63;;;5.69;100.00
19210;BME280;9738;51.654;14.238;2023-01-08T07:40:56;99743.50;;;5.73;100.00
19210;BME280;9738;51.654;14.238;2023-01-08T07:43:23;99744.19;;;5.75;100.00
19210;BME280;9738;51.654;14.238;2023-01-08T07:45:50;99746.56;;;5.78;100.00
19210;BME280;9738;51.654;14.238;2023-01-08T07:48:16;99737.22;;;5.74;100.00
19210;BME280;9738;51.654;14.238;2023-01-08T07:50:42;99736.41;;;5.74;100.00
19210;BME280;9738;51.654;14.238;2023-01-08T07:53:09;99736.25;;;5.75;100.00
19210;BME280;9738;51.654;14.238;2023-01-08T07:55:36;99738.22;;;5.73;100.00
19210;BME280;9738;51.654;14.238;2023-01-08T07:58:10;99743.22;;;5.76;100.00
19210;BME280;9738;51.654;14.238;2023-01-08T08:00:36;99730.53;;;5.80;100.00
19210;BME280;9738;51.654;14.238;2023-01-08T08:03:04;99720.63;;;5.82;100.00
19210;BME280;9738;51.654;14.238;2023-01-08T08:05:30;99731.22;;;5.82;100.00
19210;BME280;9738;51.654;14.238;2023-01-08T08:07:56;99743.34;;;5.84;100.00
19210;BME280;9738;51.654;14.238;2023-01-08T08:10:22;99742.66;;;5.82;100.00
19210;BME280;9738;51.654;14.238;2023-01-08T08:12:48;99744.09;;;5.86;100.00
19210;BME280;9738;51.654;14.238;2023-01-08T08:15:14;99733.06;;;5.91;100.00
19210;BME280;9738;51.654;14.238;2023-01-08T08:17:44;99747.47;;;5.98;100.00
19210;BME280;9738;51.654;14.238;2023-01-08T08:20:10;99739.53;;;5.98;100.00
19210;BME280;9738;51.654;14.238;2023-01-08T08:22:36;99741.03;;;6.01;100.00
19210;BME280;9738;51.654;14.238;2023-01-08T08:25:03;99737.97;;;6.05;100.00
19210;BME280;9738;51.654;14.238;2023-01-08T08:27:29;99734.75;;;6.02;100.00
19210;BME280;9738;51.654;14.238;2023-01-08T08:29:54;99735.59;;;6.02;100.00
19210;BME280;9738;51.654;14.238;2023-01-08T08:32:21;99734.78;;;6.11;100.00
19210;BME280;9738;51.654;14.238;2023-01-08T08:34:46;99740.19;;;6.10;100.00
19210;BME280;9738;51.654;14.238;2023-01-08T08:37:12;99733.66;;;6.14;100.00
19210;BME280;9738;51.654;14.238;2023-01-08T08:39:38;99727.94;;;6.18;100.00
19210;BME280;9738;51.654;14.238;2023-01-08T08:42:04;99726.53;;;6.24;100.00
19210;BME280;9738;51.654;14.238;2023-01-08T08:44:30;99734.75;;;6.31;100.00
19210;BME280;9738;51.654;14.238;2023-01-08T08:46:56;99724.00;;;6.32;100.00
19210;BME280;9738;51.654;14.238;2023-01-08T08:49:22;99723.44;;;6.38;100.00
19210;BME280;9738;51.654;14.238;2023-01-08T08:51:47;99720.50;;;6.41;100.00
19210;BME280;9738;51.654;14.238;2023-01-08T08:54:14;99722.56;;;6.47;100.00
19210;BME280;9738;51.654;14.238;2023-01-08T08:56:40;99724.81;;;6.52;100.00
19210;BME280;9738;51.654;14.238;2023-01-08T08:59:05;99714.19;;;6.52;100.00
19210;BME280;9738;51.654;14.238;2023-01-08T09:01:34;99716.13;;;6.60;100.00
19210;BME280;9738;51.654;14.238;2023-01-08T09:04:00;99723.81;;;6.63;100.00
19210;BME280;9738;51.654;14.238;2023-01-08T09:06:25;99725.75;;;6.70;100.00
19210;BME280;9738;51.654;14.238;2023-01-08T09:08:52;99729.91;;;6.73;100.00
19210;BME280;9738;51.654;14.238;2023-01-08T09:11:20;99722.78;;;6.83;100.00
19210;BME280;9738;51.654;14.238;2023-01-08T09:13:46;99709.19;;;6.86;100.00
19210;BME280;9738;51.654;14.238;2023-01-08T09:16:12;99702.31;;;6.93;100.00
19210;BME280;9738;51.654;14.238;2023-01-08T09:18:38;99700.06;;;6.98;100.00
19210;BME280;9738;51.654;14.238;2023-01-08T09:21:05;99692.50;;;7.03;100.00
19210;BME280;9738;51.654;14.238;2023-01-08T09:23:32;99693.91;;;7.08;100.00
19210;BME280;9738;51.654;14.238;2023-01-08T09:26:00;99688.00;;;7.14;100.00
19210;BME280;9738;51.654;14.238;2023-01-08T09:28:25;99690.19;;;7.18;100.00
19210;BME280;9738;51.654;14.238;2023-01-08T09:30:52;99693.00;;;7.17;100.00
19210;BME280;9738;51.654;14.238;2023-01-08T09:33:17;99699.84;;;7.19;100.00
19210;BME280;9738;51.654;14.238;2023-01-08T09:35:43;99701.38;;;7.22;100.00
19210;BME280;9738;51.654;14.238;2023-01-08T09:38:10;99695.47;;;7.28;100.00
19210;BME280;9738;51.654;14.238;2023-01-08T09:43:22;99703.81;;;7.33;100.00
19210;BME280;9738;51.654;14.238;2023-01-08T09:45:52;99695.16;;;7.31;100.00
19210;BME280;9738;51.654;14.238;2023-01-08T09:48:23;99685.22;;;7.33;100.00
19210;BME280;9738;51.654;14.238;2023-01-08T09:50:50;99687.56;;;7.36;100.00
19210;BME280;9738;51.654;14.238;2023-01-08T09:53:17;99686.59;;;7.37;100.00
19210;BME280;9738;51.654;14.238;2023-01-08T09:55:47;99689.78;;;7.41;100.00
19210;BME280;9738;51.654;14.238;2023-01-08T09:58:34;99681.38;;;7.45;100.00
19210;BME280;9738;51.654;14.238;2023-01-08T10:01:02;99676.59;;;7.49;100.00
19210;BME280;9738;51.654;14.238;2023-01-08T10:03:39;99684.41;;;7.50;100.00
19210;BME280;9738;51.654;14.238;2023-01-08T10:06:08;99676.00;;;7.55;100.00
19210;BME280;9738;51.654;14.238;2023-01-08T10:08:35;99668.25;;;7.62;100.00
19210;BME280;9738;51.654;14.238;2023-01-08T10:11:02;99663.63;;;7.64;100.00
19210;BME280;9738;51.654;14.238;2023-01-08T10:13:28;99659.66;;;7.68;100.00
19210;BME280;9738;51.654;14.238;2023-01-08T10:15:55;99656.19;;;7.67;100.00
19210;BME280;9738;51.654;14.238;2023-01-08T10:18:22;99656.41;;;7.74;100.00
19210;BME280;9738;51.654;14.238;2023-01-08T10:20:50;99654.19;;;7.69;100.00
19210;BME280;9738;51.654;14.238;2023-01-08T10:23:18;99663.88;;;7.70;100.00
19210;BME280;9738;51.654;14.238;2023-01-08T10:31:03;99658.56;;;7.70;100.00
19210;BME280;9738;51.654;14.238;2023-01-08T10:33:41;99662.31;;;7.68;100.00
19210;BME280;9738;51.654;14.238;2023-01-08T10:36:11;99663.31;;;7.67;100.00
19210;BME280;9738;51.654;14.238;2023-01-08T10:38:53;99654.66;;;7.65;100.00
19210;BME280;9738;51.654;14.238;2023-01-08T10:41:20;99653.00;;;7.64;100.00
19210;BME280;9738;51.654;14.238;2023-01-08T10:43:55;99655.19;;;7.68;100.00
19210;BME280;9738;51.654;14.238;2023-01-08T10:46:51;99648.88;;;7.69;100.00
19210;BME280;9738;51.654;14.238;2023-01-08T10:49:37;99634.47;;;7.72;100.00
19210;BME280;9738;51.654;14.238;2023-01-08T10:52:04;99644.66;;;7.76;100.00
19210;BME280;9738;51.654;14.238;2023-01-08T10:54:39;99654.13;;;7.79;100.00
19210;BME280;9738;51.654;14.238;2023-01-08T10:57:25;99656.47;;;7.82;100.00
19210;BME280;9738;51.654;14.238;2023-01-08T10:59:53;99643.19;;;7.82;100.00
19210;BME280;9738;51.654;14.238;2023-01-08T11:02:36;99640.06;;;7.86;100.00
19210;BME280;9738;51.654;14.238;2023-01-08T11:05:05;99633.31;;;7.92;100.00
19210;BME280;9738;51.654;14.238;2023-01-08T11:07:32;99634.97;;;7.93;100.00
19210;BME280;9738;51.654;14.238;2023-01-08T11:10:02;99630.03;;;7.98;100.00
19210;BME280;9738;51.654;14.238;2023-01-08T11:12:40;99624.94;;;8.05;100.00
19210;BME280;9738;51.654;14.238;2023-01-08T11:15:27;99629.72;;;8.01;100.00
19210;BME280;9738;51.654;14.238;2023-01-08T11:17:53;99620.75;;;8.02;100.00
19210;BME280;9738;51.654;14.238;2023-01-08T11:20:28;99615.56;;;8.01;100.00
19210;BME280;9738;51.654;14.238;2023-01-08T11:23:05;99623.56;;;8.01;100.00
19210;BME280;9738;51.654;14.238;2023-01-08T11:25:32;99618.25;;;8.01;100.00
19210;BME280;9738;51.654;14.238;2023-01-08T11:28:01;99617.28;;;8.02;100.00
19210;BME280;9738;51.654;14.238;2023-01-08T11:30:29;99619.94;;;8.02;100.00
19210;BME280;9738;51.654;14.238;2023-01-08T11:33:03;99621.28;;;7.88;100.00
19210;BME280;9738;51.654;14.238;2023-01-08T11:35:35;99603.69;;;7.87;100.00
19210;BME280;9738;51.654;14.238;2023-01-08T11:38:02;99608.50;;;7.83;100.00
19210;BME280;9738;51.654;14.238;2023-01-08T11:40:49;99605.28;;;7.80;100.00
19210;BME280;9738;51.654;14.238;2023-01-08T11:46:32;99602.56;;;7.72;100.00
19210;BME280;9738;51.654;14.238;2023-01-08T11:57:47;99613.88;;;7.74;100.00
19210;BME280;9738;51.654;14.238;2023-01-08T12:00:23;99616.03;;;7.70;100.00
19210;BME280;9738;51.654;14.238;2023-01-08T12:02:54;99618.53;;;7.72;100.00
19210;BME280;9738;51.654;14.238;2023-01-08T12:05:31;99613.03;;;7.73;100.00
19210;BME280;9738;51.654;14.238;2023-01-08T12:08:06;99610.38;;;7.73;100.00
19210;BME280;9738;51.654;14.238;2023-01-08T12:11:01;99604.19;;;7.65;100.00
19210;BME280;9738;51.654;14.238;2023-01-08T12:16:46;99607.81;;;7.64;100.00
19210;BME280;9738;51.654;14.238;2023-01-08T12:21:50;99591.13;;;7.53;100.00
19210;BME280;9738;51.654;14.238;2023-01-08T12:24:33;99594.16;;;7.58;100.00
19210;BME280;9738;51.654;14.238;2023-01-08T12:32:41;99564.31;;;7.65;100.00
19210;BME280;9738;51.654;14.238;2023-01-08T12:35:23;99550.88;;;7.66;100.00
19210;BME280;9738;51.654;14.238;2023-01-08T12:38:08;99546.59;;;7.73;100.00
19210;BME280;9738;51.654;14.238;2023-01-08T12:40:43;99547.66;;;7.63;100.00
19210;BME280;9738;51.654;14.238;2023-01-08T12:43:17;99554.50;;;7.65;100.00
19210;BME280;9738;51.654;14.238;2023-01-08T12:45:51;99562.31;;;7.67;100.00
19210;BME280;9738;51.654;14.238;2023-01-08T12:48:28;99573.78;;;7.67;100.00
19210;BME280;9738;51.654;14.238;2023-01-08T12:51:05;99579.56;;;7.63;100.00
19210;BME280;9738;51.654;14.238;2023-01-08T12:59:41;99553.13;;;7.61;100.00
19210;BME280;9738;51.654;14.238;2023-01-08T13:04:57;99538.34;;;7.58;100.00
19210;BME280;9738;51.654;14.238;2023-01-08T13:07:27;99540.63;;;7.53;100.00
19210;BME280;9738;51.654;14.238;2023-01-08T13:09:56;99537.53;;;7.58;100.00
19210;BME280;9738;51.654;14.238;2023-01-08T13:12:35;99539.03;;;7.61;100.00
19210;BME280;9738;51.654;14.238;2023-01-08T13:15:03;99533.34;;;7.55;100.00
19210;BME280;9738;51.654;14.238;2023-01-08T13:17:30;99533.50;;;7.54;100.00
19210;BME280;9738;51.654;14.238;2023-01-08T13:20:05;99531.16;;;7.51;100.00
19210;BME280;9738;51.654;14.238;2023-01-08T13:22:34;99536.47;;;7.51;100.00
19210;BME280;9738;51.654;14.238;2023-01-08T13:27:48;99530.91;;;7.44;100.00
19210;BME280;9738;51.654;14.238;2023-01-08T13:32:57;99530.06;;;7.44;100.00
19210;BME280;9738;51.654;14.238;2023-01-08T13:35:29;99520.28;;;7.44;100.00
19210;BME280;9738;51.654;14.238;2023-01-08T13:40:48;99515.66;;;7.46;100.00
19210;BME280;9738;51.654;14.238;2023-01-08T13:43:21;99522.81;;;7.46;100.00
19210;BME280;9738;51.654;14.238;2023-01-08T13:48:25;99524.63;;;7.45;100.00
19210;BME280;9738;51.654;14.238;2023-01-08T13:50:52;99521.81;;;7.47;100.00
19210;BME280;9738;51.654;14.238;2023-01-08T13:53:19;99512.31;;;7.44;100.00
19210;BME280;9738;51.654;14.238;2023-01-08T13:56:05;99516.13;;;7.42;100.00
19210;BME280;9738;51.654;14.238;2023-01-08T13:58:35;99512.78;;;7.40;100.00
19210;BME280;9738;51.654;14.238;2023-01-08T14:01:03;99517.56;;;7.36;100.00
19210;BME280;9738;51.654;14.238;2023-01-08T14:03:35;99504.00;;;7.39;100.00
19210;BME280;9738;51.654;14.238;2023-01-08T14:06:18;99504.97;;;7.38;100.00
19210;BME280;9738;51.654;14.238;2023-01-08T14:08:52;99503.63;;;7.34;100.00
19210;BME280;9738;51.654;14.238;2023-01-08T14:11:19;99495.81;;;7.32;100.00
19210;BME280;9738;51.654;14.238;2023-01-08T14:13:47;99504.06;;;7.29;100.00
19210;BME280;9738;51.654;14.238;2023-01-08T14:16:14;99493.59;;;7.28;100.00
19210;BME280;9738;51.654;14.238;2023-01-08T14:18:44;99499.19;;;7.25;100.00
19210;BME280;9738;51.654;14.238;2023-01-08T14:21:12;99498.25;;;7.26;100.00
19210;BME280;9738;51.654;14.238;2023-01-08T14:23:41;99505.81;;;7.21;100.00
19210;BME280;9738;51.654;14.238;2023-01-08T14:26:26;99507.66;;;7.20;100.00
19210;BME280;9738;51.654;14.238;2023-01-08T14:28:57;99509.59;;;7.18;100.00
19210;BME280;9738;51.654;14.238;2023-01-08T14:31:25;99504.59;;;7.15;100.00
19210;BME280;9738;51.654;14.238;2023-01-08T14:33:52;99506.88;;;7.10;100.00
19210;BME280;9738;51.654;14.238;2023-01-08T14:36:19;99506.88;;;7.10;100.00
19210;BME280;9738;51.654;14.238;2023-01-08T14:38:46;99511.34;;;7.10;100.00
19210;BME280;9738;51.654;14.238;2023-01-08T14:41:32;99507.66;;;7.02;100.00
19210;BME280;9738;51.654;14.238;2023-01-08T14:44:19;99498.19;;;7.00;100.00
19210;BME280;9738;51.654;14.238;2023-01-08T14:46:46;99494.38;;;7.02;100.00
19210;BME280;9738;51.654;14.238;2023-01-08T14:49:27;99501.50;;;7.02;100.00
19210;BME280;9738;51.654;14.238;2023-01-08T14:51:56;99509.09;;;6.97;100.00
19210;BME280;9738;51.654;14.238;2023-01-08T14:54:27;99511.50;;;6.90;100.00
19210;BME280;9738;51.654;14.238;2023-01-08T14:56:55;99500.50;;;6.85;100.00
19210;BME280;9738;51.654;14.238;2023-01-08T14:59:33;99503.47;;;6.82;100.00
19210;BME280;9738;51.654;14.238;2023-01-08T15:02:04;99496.78;;;6.78;100.00
19210;BME280;9738;51.654;14.238;2023-01-08T15:04:31;99505.72;;;6.77;100.00
19210;BME280;9738;51.654;14.238;2023-01-08T15:07:06;99495.41;;;6.74;100.00
19210;BME280;9738;51.654;14.238;2023-01-08T15:09:34;99494.88;;;6.70;100.00
19210;BME280;9738;51.654;14.238;2023-01-08T15:12:05;99489.34;;;6.64;100.00
19210;BME280;9738;51.654;14.238;2023-01-08T15:14:31;99487.28;;;6.58;100.00
19210;BME280;9738;51.654;14.238;2023-01-08T15:17:10;99478.78;;;6.54;100.00
19210;BME280;9738;51.654;14.238;2023-01-08T15:19:43;99481.88;;;6.49;100.00
19210;BME280;9738;51.654;14.238;2023-01-08T15:22:18;99474.53;;;6.43;100.00
19210;BME280;9738;51.654;14.238;2023-01-08T15:27:18;99478.06;;;6.34;100.00
19210;BME280;9738;51.654;14.238;2023-01-08T15:29:49;99479.34;;;6.30;100.00
19210;BME280;9738;51.654;14.238;2023-01-08T15:34:43;99467.25;;;6.18;100.00
19210;BME280;9738;51.654;14.238;2023-01-08T15:37:09;99475.50;;;6.15;100.00
19210;BME280;9738;51.654;14.238;2023-01-08T15:39:36;99474.66;;;6.14;100.00
19210;BME280;9738;51.654;14.238;2023-01-08T15:42:16;99476.78;;;6.11;100.00
19210;BME280;9738;51.654;14.238;2023-01-08T15:45:03;99475.09;;;6.10;100.00
19210;BME280;9738;51.654;14.238;2023-01-08T15:47:30;99478.88;;;6.07;100.00
19210;BME280;9738;51.654;14.238;2023-01-08T15:49:56;99481.53;;;6.07;100.00
19210;BME280;9738;51.654;14.238;2023-01-08T15:52:23;99473.72;;;6.06;100.00
19210;BME280;9738;51.654;14.238;2023-01-08T15:54:58;99469.25;;;6.06;100.00
19210;BME280;9738;51.654;14.238;2023-01-08T15:57:25;99473.72;;;6.06;100.00
19210;BME280;9738;51.654;14.238;2023-01-08T15:59:51;99469.53;;;6.03;100.00
19210;BME280;9738;51.654;14.238;2023-01-08T16:02:18;99487.25;;;6.03;100.00
19210;BME280;9738;51.654;14.238;2023-01-08T16:04:43;99486.59;;;6.01;100.00
19210;BME280;9738;51.654;14.238;2023-01-08T16:07:09;99490.22;;;6.00;100.00
19210;BME280;9738;51.654;14.238;2023-01-08T16:09:35;99491.19;;;5.99;100.00
19210;BME280;9738;51.654;14.238;2023-01-08T16:12:01;99494.13;;;5.95;100.00
19210;BME280;9738;51.654;14.238;2023-01-08T16:14:27;99489.38;;;5.99;100.00
19210;BME280;9738;51.654;14.238;2023-01-08T16:16:55;99495.22;;;6.03;100.00
19210;BME280;9738;51.654;14.238;2023-01-08T16:19:21;99487.25;;;6.03;100.00
19210;BME280;9738;51.654;14.238;2023-01-08T16:21:46;99491.56;;;6.04;100.00
19210;BME280;9738;51.654;14.238;2023-01-08T16:24:15;99498.69;;;6.03;100.00
19210;BME280;9738;51.654;14.238;2023-01-08T16:26:40;99500.91;;;6.08;100.00
19210;BME280;9738;51.654;14.238;2023-01-08T16:29:06;99496.03;;;6.03;100.00
19210;BME280;9738;51.654;14.238;2023-01-08T16:31:32;99495.22;;;6.03;100.00
19210;BME280;9738;51.654;14.238;2023-01-08T16:34:02;99496.50;;;5.99;100.00
19210;BME280;9738;51.654;14.238;2023-01-08T16:36:28;99498.16;;;6.00;100.00
19210;BME280;9738;51.654;14.238;2023-01-08T16:38:55;99511.41;;;6.00;100.00
19210;BME280;9738;51.654;14.238;2023-01-08T16:41:20;99493.84;;;5.99;100.00
19210;BME280;9738;51.654;14.238;2023-01-08T16:43:46;99499.84;;;6.01;100.00
19210;BME280;9738;51.654;14.238;2023-01-08T16:46:15;99482.25;;;6.00;100.00
19210;BME280;9738;51.654;14.238;2023-01-08T16:48:42;99480.19;;;5.93;100.00
19210;BME280;9738;51.654;14.238;2023-01-08T16:51:09;99485.50;;;5.93;100.00
19210;BME280;9738;51.654;14.238;2023-01-08T16:53:36;99465.81;;;5.96;100.00
19210;BME280;9738;51.654;14.238;2023-01-08T16:56:03;99462.16;;;5.97;100.00
19210;BME280;9738;51.654;14.238;2023-01-08T16:58:29;99468.47;;;5.96;100.00
19210;BME280;9738;51.654;14.238;2023-01-08T17:00:57;99464.28;;;5.93;100.00
19210;BME280;9738;51.654;14.238;2023-01-08T17:03:23;99461.66;;;5.93;100.00
19210;BME280;9738;51.654;14.238;2023-01-08T17:05:49;99459.00;;;5.93;100.00
19210;BME280;9738;51.654;14.238;2023-01-08T17:08:15;99475.41;;;5.97;100.00
19210;BME280;9738;51.654;14.238;2023-01-08T17:10:42;99470.28;;;5.95;100.00
19210;BME280;9738;51.654;14.238;2023-01-08T17:13:08;99474.47;;;5.98;100.00
19210;BME280;9738;51.654;14.238;2023-01-08T17:15:38;99476.25;;;5.97;100.00
19210;BME280;9738;51.654;14.238;2023-01-08T17:18:04;99474.31;;;6.00;100.00
19210;BME280;9738;51.654;14.238;2023-01-08T17:20:30;99472.66;;;5.99;100.00
19210;BME280;9738;51.654;14.238;2023-01-08T17:22:57;99474.31;;;6.00;100.00
19210;BME280;9738;51.654;14.238;2023-01-08T17:25:23;99462.88;;;5.99;100.00
19210;BME280;9738;51.654;14.238;2023-01-08T17:27:49;99454.22;;;5.97;100.00
19210;BME280;9738;51.654;14.238;2023-01-08T17:30:15;99452.56;;;5.96;100.00
19210;BME280;9738;51.654;14.238;2023-01-08T17:32:41;99456.19;;;5.95;100.00
19210;BME280;9738;51.654;14.238;2023-01-08T17:35:07;99450.88;;;5.95;100.00
19210;BME280;9738;51.654;14.238;2023-01-08T17:37:34;99452.88;;;5.93;100.00
19210;BME280;9738;51.654;14.238;2023-01-08T17:40:00;99455.63;;;5.91;100.00
19210;BME280;9738;51.654;14.238;2023-01-08T17:42:28;99450.59;;;5.88;100.00
19210;BME280;9738;51.654;14.238;2023-01-08T17:44:57;99453.41;;;5.87;100.00
19210;BME280;9738;51.654;14.238;2023-01-08T17:47:24;99452.56;;;5.86;100.00
19210;BME280;9738;51.654;14.238;2023-01-08T17:49:55;99449.94;;;5.86;100.00
19210;BME280;9738;51.654;14.238;2023-01-08T17:52:23;99451.88;;;5.84;100.00